createdAt,value
2022-12-20T00:00:57.091Z,3.04
2022-12-20T00:03:20.235Z,3.03
2022-12-20T00:05:42.703Z,3.03
2022-12-20T00:08:04.359Z,2.98
2022-12-20T00:10:25.940Z,2.92
2022-12-20T00:12:47.455Z,2.91
2022-12-20T00:15:09.812Z,3.01
2022-12-20T00:17:31.602Z,3.09
2022-12-20T00:19:53.121Z,3.19
2022-12-20T00:22:14.879Z,3.08
2022-12-20T00:24:37.125Z,3.09
2022-12-20T00:26:58.685Z,3.04
2022-12-20T00:29:20.144Z,3.02
2022-12-20T00:31:41.661Z,3.14
2022-12-20T00:34:03.472Z,3.15
2022-12-20T00:36:27.281Z,3.13
2022-12-20T00:38:50.904Z,3.30
2022-12-20T00:41:16.363Z,3.24
2022-12-20T00:43:39.501Z,3.29
2022-12-20T00:46:01.526Z,3.25
2022-12-20T00:48:23.388Z,3.22
2022-12-20T00:50:44.874Z,3.04
2022-12-20T00:53:09.903Z,3.24
2022-12-20T00:55:31.392Z,3.25
2022-12-20T00:57:52.873Z,3.21
2022-12-20T01:00:15.418Z,3.27
2022-12-20T01:02:37.134Z,3.21
2022-12-20T01:04:58.907Z,3.32
2022-12-20T01:07:20.405Z,3.27
2022-12-20T01:09:41.899Z,3.23
2022-12-20T01:12:03.745Z,3.28
2022-12-20T01:14:25.228Z,3.08
2022-12-20T01:16:48.185Z,3.20
2022-12-20T01:19:13.239Z,3.37
2022-12-20T01:21:36.014Z,3.37
2022-12-20T01:23:57.717Z,3.34
2022-12-20T01:26:22.234Z,3.32
2022-12-20T01:28:45.700Z,3.33
2022-12-20T01:31:12.490Z,3.15
2022-12-20T01:33:34.832Z,3.20
2022-12-20T01:35:58.468Z,3.00
2022-12-20T01:38:19.929Z,2.98
2022-12-20T01:40:41.438Z,3.08
2022-12-20T01:43:02.918Z,3.16
2022-12-20T01:45:30.995Z,3.12
2022-12-20T01:47:52.724Z,3.11
2022-12-20T01:50:14.465Z,3.14
2022-12-20T01:52:40.908Z,3.18
2022-12-20T01:55:08.722Z,3.00
2022-12-20T01:57:41.101Z,3.12
2022-12-20T02:00:04.574Z,2.94
2022-12-20T02:02:27.126Z,2.99
2022-12-20T02:04:48.693Z,3.05
2022-12-20T02:07:17.487Z,2.98
2022-12-20T02:09:39.660Z,2.85
2022-12-20T02:12:03.787Z,2.99
2022-12-20T02:15:13.229Z,2.85
2022-12-20T02:18:02.189Z,2.87
2022-12-20T02:20:39.515Z,2.99
2022-12-20T02:23:22.588Z,3.10
2022-12-20T02:26:04.716Z,3.16
2022-12-20T02:28:52.152Z,3.20
2022-12-20T02:31:18.930Z,3.18
2022-12-20T02:33:48.030Z,3.31
2022-12-20T02:36:09.734Z,3.43
2022-12-20T02:38:35.843Z,3.31
2022-12-20T02:41:27.187Z,3.30
2022-12-20T02:44:12.993Z,3.35
2022-12-20T02:46:36.178Z,3.26
2022-12-20T02:49:03.318Z,3.35
2022-12-20T02:51:28.703Z,3.12
2022-12-20T02:53:50.783Z,3.11
2022-12-20T02:56:36.438Z,2.95
2022-12-20T02:59:21.469Z,2.94
2022-12-20T03:01:49.906Z,2.99
2022-12-20T03:04:12.605Z,2.93
2022-12-20T03:06:34.544Z,2.93
2022-12-20T03:08:56.209Z,2.97
2022-12-20T03:11:17.743Z,2.97
2022-12-20T03:13:39.352Z,3.03
2022-12-20T03:16:00.849Z,3.04
2022-12-20T03:18:22.366Z,2.90
2022-12-20T03:20:44.287Z,3.00
2022-12-20T03:23:06.654Z,3.07
2022-12-20T03:25:28.302Z,3.10
2022-12-20T03:27:49.811Z,3.17
2022-12-20T03:30:12.132Z,3.17
2022-12-20T03:32:33.695Z,3.10
2022-12-20T03:34:55.189Z,3.13
2022-12-20T03:37:16.802Z,3.13
2022-12-20T03:39:38.290Z,3.09
2022-12-20T03:41:59.792Z,3.24
2022-12-20T03:44:21.481Z,3.31
2022-12-20T03:46:43.068Z,3.31
2022-12-20T03:49:04.718Z,3.33
2022-12-20T03:51:26.291Z,3.43
2022-12-20T03:53:47.763Z,3.38
2022-12-20T03:56:09.292Z,3.44
2022-12-20T03:58:30.795Z,3.39
2022-12-20T04:00:52.376Z,3.37
2022-12-20T04:03:13.942Z,3.45
2022-12-20T04:05:35.523Z,3.49
2022-12-20T04:07:57.007Z,3.53
2022-12-20T04:10:18.515Z,3.54
2022-12-20T04:12:40.030Z,3.70
2022-12-20T04:15:01.651Z,3.44
2022-12-20T04:17:23.171Z,3.54
2022-12-20T04:19:44.653Z,3.70
2022-12-20T04:22:06.515Z,3.74
2022-12-20T04:24:28.145Z,3.78
2022-12-20T04:26:49.724Z,3.82
2022-12-20T04:29:11.331Z,3.82
2022-12-20T04:31:33.371Z,3.83
2022-12-20T04:33:55.206Z,3.74
2022-12-20T04:36:16.795Z,3.76
2022-12-20T04:38:38.280Z,3.66
2022-12-20T04:40:59.953Z,3.76
2022-12-20T04:43:22.953Z,3.60
2022-12-20T04:45:45.277Z,3.67
2022-12-20T04:48:36.922Z,3.72
2022-12-20T04:50:49.633Z,3.69
2022-12-20T04:53:30.249Z,3.56
2022-12-20T04:55:51.951Z,3.66
2022-12-20T04:58:13.450Z,3.82
2022-12-20T05:00:35.406Z,3.81
2022-12-20T05:02:56.980Z,3.73
2022-12-20T05:05:18.624Z,3.61
2022-12-20T05:07:40.306Z,3.58
2022-12-20T05:10:01.859Z,3.60
2022-12-20T05:12:23.346Z,3.59
2022-12-20T05:14:44.903Z,3.55
2022-12-20T05:17:06.522Z,3.49
2022-12-20T05:19:27.994Z,3.46
2022-12-20T05:22:08.075Z,3.50
2022-12-20T05:24:48.147Z,3.52
2022-12-20T05:27:09.696Z,3.63
2022-12-20T05:29:31.187Z,3.55
2022-12-20T05:31:52.780Z,3.68
2022-12-20T05:34:14.400Z,3.72
2022-12-20T05:36:35.900Z,3.79
2022-12-20T05:39:03.650Z,3.97
2022-12-20T05:41:26.008Z,4.11
2022-12-20T05:43:47.467Z,3.86
2022-12-20T05:46:09.077Z,3.84
2022-12-20T05:48:30.660Z,3.81
2022-12-20T05:50:52.177Z,3.85
2022-12-20T05:53:15.558Z,3.91
2022-12-20T05:55:37.089Z,4.17
2022-12-20T05:57:58.573Z,3.99
2022-12-20T06:00:20.341Z,3.84
2022-12-20T06:02:42.082Z,3.74
2022-12-20T06:05:03.835Z,3.87
2022-12-20T06:07:28.950Z,4.03
2022-12-20T06:09:50.579Z,3.97
2022-12-20T06:12:12.071Z,3.94
2022-12-20T06:14:33.545Z,3.78
2022-12-20T06:16:55.102Z,3.78
2022-12-20T06:19:21.416Z,4.01
2022-12-20T06:21:43.443Z,4.05
2022-12-20T06:24:05.747Z,4.19
2022-12-20T06:26:27.665Z,4.21
2022-12-20T06:28:52.798Z,4.25
2022-12-20T06:31:14.440Z,4.21
2022-12-20T06:33:36.681Z,4.29
2022-12-20T06:35:58.143Z,4.23
2022-12-20T06:38:19.662Z,4.37
2022-12-20T06:40:41.187Z,4.27
2022-12-20T06:43:02.674Z,4.28
2022-12-20T06:45:24.168Z,4.37
2022-12-20T06:47:45.695Z,4.19
2022-12-20T06:50:07.929Z,4.31
2022-12-20T06:52:29.460Z,4.28
2022-12-20T06:54:50.934Z,4.37
2022-12-20T06:57:12.555Z,4.31
2022-12-20T06:59:34.042Z,4.33
2022-12-20T07:01:55.690Z,4.02
2022-12-20T07:04:17.395Z,3.81
2022-12-20T07:06:38.873Z,3.81
2022-12-20T07:09:00.411Z,3.92
2022-12-20T07:11:22.353Z,3.87
2022-12-20T07:13:43.828Z,4.08
2022-12-20T07:16:05.801Z,4.29
2022-12-20T07:18:27.420Z,4.31
2022-12-20T07:20:48.904Z,4.32
2022-12-20T07:23:10.376Z,4.38
2022-12-20T07:25:31.996Z,4.35
2022-12-20T07:27:53.956Z,4.48
2022-12-20T07:30:16.501Z,4.27
2022-12-20T07:32:37.959Z,4.30
2022-12-20T07:34:59.476Z,4.49
2022-12-20T07:37:20.974Z,4.39
2022-12-20T07:39:42.451Z,4.27
2022-12-20T07:42:05.236Z,4.44
2022-12-20T07:44:26.729Z,4.64
2022-12-20T07:46:48.356Z,4.47
2022-12-20T07:49:10.077Z,4.34
2022-12-20T07:51:36.427Z,4.50
2022-12-20T07:54:22.617Z,4.72
2022-12-20T07:56:47.676Z,4.57
2022-12-20T07:59:13.049Z,4.47
2022-12-20T08:01:35.414Z,4.50
2022-12-20T08:04:12.970Z,4.35
2022-12-20T08:06:37.121Z,4.47
2022-12-20T08:09:02.884Z,4.65
2022-12-20T08:11:25.942Z,4.59
2022-12-20T08:13:54.189Z,4.47
2022-12-20T08:16:19.183Z,4.52
2022-12-20T08:18:40.723Z,4.45
2022-12-20T08:21:02.244Z,4.31
2022-12-20T08:23:23.697Z,4.28
2022-12-20T08:25:45.365Z,4.14
2022-12-20T08:28:06.855Z,4.01
2022-12-20T08:30:28.977Z,4.30
2022-12-20T08:32:50.519Z,4.20
2022-12-20T08:35:13.117Z,4.34
2022-12-20T08:37:34.722Z,4.45
2022-12-20T08:39:56.196Z,4.46
2022-12-20T08:42:17.750Z,4.59
2022-12-20T08:44:39.235Z,4.68
2022-12-20T08:47:00.752Z,4.48
2022-12-20T08:49:22.320Z,4.45
2022-12-20T08:51:43.904Z,4.45
2022-12-20T08:54:05.540Z,4.26
2022-12-20T08:56:27.037Z,4.14
2022-12-20T08:58:48.781Z,4.51
2022-12-20T09:01:13.222Z,4.48
2022-12-20T09:03:36.188Z,4.65
2022-12-20T09:05:59.345Z,4.79
2022-12-20T09:08:20.914Z,4.82
2022-12-20T09:10:43.325Z,5.01
2022-12-20T09:13:04.768Z,4.91
2022-12-20T09:15:27.812Z,4.70
2022-12-20T09:17:49.341Z,4.55
2022-12-20T09:20:11.012Z,4.57
2022-12-20T09:22:32.457Z,4.60
2022-12-20T09:24:53.904Z,4.66
2022-12-20T09:27:15.422Z,4.65
2022-12-20T09:29:36.908Z,4.70
2022-12-20T09:31:58.406Z,4.78
2022-12-20T09:34:19.861Z,4.77
2022-12-20T09:36:41.361Z,4.88
2022-12-20T09:39:02.836Z,4.96
2022-12-20T09:41:38.273Z,5.13
2022-12-20T09:44:05.641Z,5.42
2022-12-20T09:46:28.050Z,5.53
2022-12-20T09:48:50.906Z,5.57
2022-12-20T09:51:41.880Z,5.40
2022-12-20T09:54:09.162Z,5.28
2022-12-20T09:56:36.622Z,5.23
2022-12-20T09:59:06.838Z,5.23
2022-12-20T10:01:38.069Z,5.56
2022-12-20T10:04:05.008Z,5.60
2022-12-20T10:06:55.589Z,5.61
2022-12-20T10:09:46.381Z,5.96
2022-12-20T10:12:15.501Z,6.05
2022-12-20T10:14:55.348Z,6.19
2022-12-20T10:17:19.638Z,6.12
2022-12-20T10:19:59.348Z,6.18
2022-12-20T10:22:26.058Z,6.25
2022-12-20T10:25:01.875Z,6.32
2022-12-20T10:27:24.670Z,6.42
2022-12-20T10:29:48.235Z,6.43
2022-12-20T10:32:22.259Z,6.48
2022-12-20T10:35:01.306Z,6.47
2022-12-20T10:37:22.868Z,6.43
2022-12-20T10:39:48.998Z,6.52
2022-12-20T10:42:36.025Z,6.56
2022-12-20T10:44:57.819Z,6.51
2022-12-20T10:47:34.245Z,6.58
2022-12-20T10:50:08.878Z,6.49
2022-12-20T10:52:30.356Z,6.51
2022-12-20T10:54:51.850Z,6.40
2022-12-20T10:57:25.133Z,6.44
2022-12-20T10:59:55.341Z,6.48
2022-12-20T11:02:35.009Z,6.50
2022-12-20T11:05:01.337Z,6.53
2022-12-20T11:07:27.451Z,6.44
2022-12-20T11:09:57.154Z,6.52
2022-12-20T11:12:18.768Z,6.65
2022-12-20T11:14:42.000Z,6.62
2022-12-20T11:17:11.588Z,6.71
2022-12-20T11:19:59.476Z,6.77
2022-12-20T11:22:37.437Z,6.76
2022-12-20T11:25:26.007Z,6.87
2022-12-20T11:28:03.770Z,6.50
2022-12-20T11:30:53.760Z,6.56
2022-12-20T11:33:50.988Z,6.81
2022-12-20T11:36:27.294Z,6.72
2022-12-20T11:39:31.263Z,6.56
2022-12-20T11:42:11.113Z,6.48
2022-12-20T11:44:50.157Z,6.56
2022-12-20T11:47:50.094Z,6.71
2022-12-20T11:50:36.343Z,6.43
2022-12-20T11:53:08.790Z,6.23
2022-12-20T11:55:35.523Z,6.13
2022-12-20T11:58:18.755Z,6.05
2022-12-20T12:00:44.920Z,6.04
2022-12-20T12:03:32.684Z,6.04
2022-12-20T12:06:00.770Z,6.35
2022-12-20T12:08:29.180Z,6.25
2022-12-20T12:11:07.060Z,6.27
2022-12-20T12:13:31.911Z,6.21
2022-12-20T12:16:05.323Z,6.32
2022-12-20T12:18:32.032Z,6.21
2022-12-20T12:21:10.108Z,6.19
2022-12-20T12:23:46.780Z,6.32
2022-12-20T12:26:18.456Z,6.29
2022-12-20T12:28:39.994Z,6.26
2022-12-20T12:31:10.757Z,5.91
2022-12-20T12:33:39.252Z,5.63
2022-12-20T12:36:46.867Z,5.57
2022-12-20T12:39:33.557Z,5.74
2022-12-20T12:42:07.303Z,5.98
2022-12-20T12:44:49.578Z,6.04
2022-12-20T12:47:28.420Z,6.15
2022-12-20T12:49:52.974Z,6.04
2022-12-20T12:52:36.264Z,6.07
2022-12-20T12:54:57.762Z,6.23
2022-12-20T12:57:19.581Z,6.16
2022-12-20T12:59:49.475Z,6.33
2022-12-20T13:02:14.317Z,6.24
2022-12-20T13:05:06.820Z,6.23
2022-12-20T13:07:35.123Z,5.95
2022-12-20T13:09:56.683Z,6.07
2022-12-20T13:12:36.271Z,6.09
2022-12-20T13:14:57.788Z,6.05
2022-12-20T13:17:25.755Z,6.21
2022-12-20T13:19:53.467Z,6.08
2022-12-20T13:22:17.711Z,6.14
2022-12-20T13:24:56.331Z,6.26
2022-12-20T13:27:37.016Z,6.24
2022-12-20T13:30:04.634Z,6.08
2022-12-20T13:32:47.751Z,6.11
2022-12-20T13:35:24.701Z,6.18
2022-12-20T13:38:02.060Z,6.27
2022-12-20T13:40:38.892Z,5.89
2022-12-20T13:43:07.725Z,6.04
2022-12-20T13:45:29.780Z,6.07
2022-12-20T13:47:59.917Z,6.00
2022-12-20T13:50:27.438Z,5.96
2022-12-20T13:52:49.324Z,6.14
2022-12-20T13:55:30.960Z,6.07
2022-12-20T13:57:54.042Z,6.11
2022-12-20T14:00:25.515Z,6.19
2022-12-20T14:02:47.257Z,6.12
2022-12-20T14:05:26.717Z,6.14
2022-12-20T14:07:58.111Z,5.96
2022-12-20T14:10:23.886Z,6.09
2022-12-20T14:12:46.280Z,6.14
2022-12-20T14:15:34.115Z,6.16
2022-12-20T14:17:55.716Z,6.07
2022-12-20T14:20:22.465Z,6.06
2022-12-20T14:22:59.261Z,6.15
2022-12-20T14:25:38.677Z,6.09
2022-12-20T14:28:00.533Z,6.05
2022-12-20T14:30:32.019Z,6.19
2022-12-20T14:32:55.444Z,6.08
2022-12-20T14:35:21.067Z,6.12
2022-12-20T14:37:53.379Z,6.00
2022-12-20T14:40:19.373Z,6.02
2022-12-20T14:42:40.928Z,5.64
2022-12-20T14:45:27.059Z,5.59
2022-12-20T14:47:51.822Z,5.66
2022-12-20T14:50:26.470Z,5.65
2022-12-20T14:52:48.032Z,5.49
2022-12-20T14:55:17.811Z,5.57
2022-12-20T14:57:45.278Z,5.75
2022-12-20T15:00:15.309Z,5.85
2022-12-20T15:02:41.593Z,5.70
2022-12-20T15:05:35.636Z,5.67
2022-12-20T15:08:15.399Z,5.55
2022-12-20T15:10:37.245Z,5.86
2022-12-20T15:12:58.695Z,5.84
2022-12-20T15:15:34.627Z,6.03
2022-12-20T15:17:56.127Z,6.17
2022-12-20T15:20:17.705Z,6.14
2022-12-20T15:22:39.976Z,6.11
2022-12-20T15:25:01.516Z,6.01
2022-12-20T15:27:24.431Z,5.96
2022-12-20T15:29:45.858Z,5.95
2022-12-20T15:32:15.833Z,5.90
2022-12-20T15:34:38.770Z,5.90
2022-12-20T15:37:00.363Z,5.82
2022-12-20T15:39:22.331Z,5.74
2022-12-20T15:41:47.157Z,5.91
2022-12-20T15:44:17.551Z,5.94
2022-12-20T15:46:39.066Z,6.09
2022-12-20T15:49:00.522Z,5.95
2022-12-20T15:51:30.137Z,5.90
2022-12-20T15:53:51.614Z,5.91
2022-12-20T15:56:19.414Z,5.91
2022-12-20T15:58:40.858Z,5.78
2022-12-20T16:01:03.463Z,5.82
2022-12-20T16:03:30.660Z,5.82
2022-12-20T16:05:52.472Z,5.78
2022-12-20T16:08:14.137Z,5.88
2022-12-20T16:10:36.405Z,5.81
2022-12-20T16:12:57.906Z,5.76
2022-12-20T16:15:22.309Z,5.88
2022-12-20T16:17:43.809Z,5.75
2022-12-20T16:20:06.096Z,5.74
2022-12-20T16:22:27.516Z,5.83
2022-12-20T16:24:49.483Z,6.01
2022-12-20T16:27:11.417Z,6.06
2022-12-20T16:29:32.862Z,5.96
2022-12-20T16:31:54.358Z,6.10
2022-12-20T16:34:17.088Z,5.83
2022-12-20T16:36:38.618Z,5.96
2022-12-20T16:39:00.059Z,5.67
2022-12-20T16:41:24.826Z,5.69
2022-12-20T16:43:47.926Z,5.77
2022-12-20T16:46:12.586Z,5.78
2022-12-20T16:48:34.602Z,5.75
2022-12-20T16:50:57.209Z,5.88
2022-12-20T16:53:19.258Z,5.95
2022-12-20T16:55:40.930Z,5.82
2022-12-20T16:58:02.374Z,5.77
2022-12-20T17:00:27.055Z,5.89
2022-12-20T17:02:49.716Z,6.07
2022-12-20T17:05:25.781Z,5.89
2022-12-20T17:07:47.220Z,5.90
2022-12-20T17:10:10.157Z,5.95
2022-12-20T17:12:31.597Z,5.86
2022-12-20T17:14:53.109Z,5.94
2022-12-20T17:17:15.406Z,5.87
2022-12-20T17:19:37.118Z,5.80
2022-12-20T17:24:37.685Z,5.52
2022-12-20T17:27:00.403Z,5.72
2022-12-20T17:29:22.109Z,5.79
2022-12-20T17:31:46.401Z,5.67
2022-12-20T17:34:22.756Z,5.74
2022-12-20T17:36:45.139Z,5.79
2022-12-20T17:39:06.583Z,5.83
2022-12-20T17:41:31.292Z,5.85
2022-12-20T17:43:53.559Z,5.84
2022-12-20T17:46:15.301Z,5.89
2022-12-20T17:48:43.425Z,5.79
2022-12-20T17:51:14.901Z,5.60
2022-12-20T17:53:36.338Z,5.74
2022-12-20T17:55:57.797Z,5.85
2022-12-20T17:58:19.231Z,5.89
2022-12-20T18:00:40.847Z,5.81
2022-12-20T18:03:02.403Z,5.91
2022-12-20T18:05:24.978Z,6.03
2022-12-20T18:07:54.406Z,6.04
2022-12-20T18:10:15.913Z,6.11
2022-12-20T18:12:38.973Z,6.19
2022-12-20T18:15:01.034Z,6.16
2022-12-20T18:17:22.497Z,6.12
2022-12-20T18:19:44.029Z,5.99
2022-12-20T18:22:06.561Z,6.00
2022-12-20T18:24:28.248Z,6.16
2022-12-20T18:26:49.725Z,5.99
2022-12-20T18:29:11.438Z,5.95
2022-12-20T18:31:34.554Z,5.87
2022-12-20T18:33:58.252Z,5.99
2022-12-20T18:36:25.798Z,6.07
2022-12-20T18:38:48.994Z,5.96
2022-12-20T18:41:19.413Z,5.82
2022-12-20T18:43:41.198Z,5.88
2022-12-20T18:46:07.819Z,6.01
2022-12-20T18:48:29.378Z,6.01
2022-12-20T18:50:50.897Z,6.33
2022-12-20T18:53:12.383Z,6.23
2022-12-20T18:55:36.899Z,6.08
2022-12-20T18:57:58.326Z,6.23
2022-12-20T19:00:20.512Z,6.18
2022-12-20T19:02:42.920Z,6.18
2022-12-20T19:05:04.803Z,6.01
2022-12-20T19:07:26.321Z,6.10
2022-12-20T19:09:47.809Z,6.31
2022-12-20T19:12:09.258Z,6.34
2022-12-20T19:14:30.718Z,6.43
2022-12-20T19:16:52.223Z,6.43
2022-12-20T19:19:14.054Z,6.49
2022-12-20T19:21:37.779Z,6.33
2022-12-20T19:24:03.926Z,6.39
2022-12-20T19:26:30.328Z,6.35
2022-12-20T19:28:51.883Z,6.43
2022-12-20T19:31:24.913Z,6.35
2022-12-20T19:33:48.018Z,6.39
2022-12-20T19:36:12.891Z,6.49
2022-12-20T19:38:34.337Z,6.52
2022-12-20T19:40:55.867Z,6.39
2022-12-20T19:43:17.318Z,6.13
2022-12-20T19:45:39.005Z,6.28
2022-12-20T19:48:00.469Z,6.28
2022-12-20T19:50:21.962Z,6.36
2022-12-20T19:52:43.402Z,6.16
2022-12-20T19:55:05.289Z,6.11
2022-12-20T19:57:26.806Z,6.21
2022-12-20T19:59:52.258Z,6.36
2022-12-20T20:02:17.296Z,6.38
2022-12-20T20:04:38.825Z,6.38
2022-12-20T20:07:00.460Z,6.28
2022-12-20T20:09:22.141Z,6.39
2022-12-20T20:11:43.607Z,6.00
2022-12-20T20:14:09.244Z,6.13
2022-12-20T20:16:30.911Z,5.87
2022-12-20T20:18:52.534Z,5.82
2022-12-20T20:21:17.946Z,6.02
2022-12-20T20:23:40.032Z,6.15
2022-12-20T20:26:01.558Z,6.37
2022-12-20T20:28:31.240Z,6.43
2022-12-20T20:30:56.595Z,6.46
2022-12-20T20:33:18.199Z,6.40
2022-12-20T20:35:40.424Z,6.59
2022-12-20T20:38:02.101Z,6.58
2022-12-20T20:40:23.546Z,6.62
2022-12-20T20:42:45.033Z,6.40
2022-12-20T20:45:07.389Z,6.31
2022-12-20T20:47:28.864Z,6.12
2022-12-20T20:49:52.721Z,6.09
2022-12-20T20:52:14.241Z,5.92
2022-12-20T20:54:35.691Z,5.79
2022-12-20T20:56:57.169Z,5.69
2022-12-20T20:59:18.679Z,5.83
2022-12-20T21:01:40.259Z,5.86
2022-12-20T21:04:02.193Z,6.02
2022-12-20T21:06:41.668Z,6.00
2022-12-20T21:09:04.352Z,6.19
2022-12-20T21:11:25.879Z,6.28
2022-12-20T21:13:47.427Z,6.30
2022-12-20T21:16:11.488Z,6.44
2022-12-20T21:18:33.044Z,6.32
2022-12-20T21:20:54.523Z,6.43
2022-12-20T21:23:15.953Z,6.49
2022-12-20T21:25:37.488Z,6.35
2022-12-20T21:27:59.002Z,6.31
2022-12-20T21:30:20.506Z,6.36
2022-12-20T21:32:41.994Z,6.29
2022-12-20T21:35:03.532Z,6.47
2022-12-20T21:37:25.903Z,6.45
2022-12-20T21:39:47.884Z,6.38
2022-12-20T21:42:09.347Z,6.39
2022-12-20T21:44:30.823Z,6.52
2022-12-20T21:46:52.494Z,6.43
2022-12-20T21:49:14.074Z,6.35
2022-12-20T21:51:35.552Z,6.34
2022-12-20T21:53:59.673Z,6.50
2022-12-20T21:56:22.532Z,6.56
2022-12-20T21:58:44.872Z,6.59
2022-12-20T22:01:08.116Z,6.59
2022-12-20T22:03:29.892Z,6.60
2022-12-20T22:05:54.391Z,6.70
2022-12-20T22:08:17.044Z,6.67
2022-12-20T22:10:38.511Z,6.65
2022-12-20T22:12:59.960Z,6.71
2022-12-20T22:15:21.439Z,6.66
2022-12-20T22:17:42.913Z,6.61
2022-12-20T22:20:05.027Z,6.53
2022-12-20T22:22:26.551Z,6.38
2022-12-20T22:24:48.058Z,6.28
2022-12-20T22:27:11.625Z,6.01
2022-12-20T22:29:33.275Z,6.02
2022-12-20T22:31:54.822Z,6.00
2022-12-20T22:34:16.304Z,5.93
2022-12-20T22:36:37.899Z,5.90
2022-12-20T22:38:59.793Z,6.03
2022-12-20T22:41:27.881Z,5.87
2022-12-20T22:43:49.641Z,6.00
2022-12-20T22:46:12.322Z,6.02
2022-12-20T22:48:33.841Z,6.19
2022-12-20T22:51:11.459Z,6.31
2022-12-20T22:53:34.103Z,6.29
2022-12-20T22:55:55.588Z,6.44
2022-12-20T22:58:17.051Z,6.37
2022-12-20T23:00:38.498Z,6.31
2022-12-20T23:03:00.080Z,6.43
2022-12-20T23:05:21.730Z,6.52
2022-12-20T23:07:43.229Z,6.47
2022-12-20T23:10:25.055Z,6.66
2022-12-20T23:13:05.094Z,6.59
2022-12-20T23:15:41.744Z,6.43
2022-12-20T23:18:03.239Z,6.44
2022-12-20T23:20:43.487Z,6.51
2022-12-20T23:23:04.912Z,6.52
2022-12-20T23:25:26.400Z,6.65
2022-12-20T23:27:49.559Z,6.67
2022-12-20T23:30:13.546Z,6.69
2022-12-20T23:32:35.259Z,6.81
2022-12-20T23:34:56.740Z,6.95
2022-12-20T23:37:18.342Z,6.97
2022-12-20T23:39:39.779Z,6.99
2022-12-20T23:42:01.235Z,6.97
2022-12-20T23:44:22.791Z,6.76
2022-12-20T23:46:44.249Z,6.62
2022-12-20T23:49:06.066Z,6.47
2022-12-20T23:51:27.599Z,6.35
2022-12-20T23:53:51.018Z,6.49
2022-12-20T23:56:16.019Z,6.88
2022-12-20T23:58:38.072Z,6.70
